sensor_id;sensor_type;location;lat;lon;timestamp;P1;durP1;ratioP1;P2;durP2;ratioP2
49372;SDS011;44113;38.408;-122.974;2022-08-19T00:13:53;11.77;;;1.90;;
49372;SDS011;44113;38.408;-122.974;2022-08-19T00:16:21;4.40;;;1.20;;
49372;SDS011;44113;38.408;-122.974;2022-08-19T00:18:50;3.47;;;0.73;;
49372;SDS011;44113;38.408;-122.974;2022-08-19T00:21:16;2.42;;;0.93;;
49372;SDS011;44113;38.408;-122.974;2022-08-19T00:23:44;1.48;;;0.80;;
49372;SDS011;44113;38.408;-122.974;2022-08-19T00:26:10;3.42;;;1.08;;
49372;SDS011;44113;38.408;-122.974;2022-08-19T00:28:37;2.00;;;0.80;;
49372;SDS011;44113;38.408;-122.974;2022-08-19T00:31:05;1.88;;;0.70;;
49372;SDS011;44113;38.408;-122.974;2022-08-19T00:33:33;3.63;;;0.70;;
49372;SDS011;44113;38.408;-122.974;2022-08-19T00:36:00;2.25;;;1.25;;
49372;SDS011;44113;38.408;-122.974;2022-08-19T00:38:30;1.55;;;0.88;;
49372;SDS011;44113;38.408;-122.974;2022-08-19T00:40:56;1.98;;;0.55;;
49372;SDS011;44113;38.408;-122.974;2022-08-19T00:43:26;2.08;;;0.65;;
49372;SDS011;44113;38.408;-122.974;2022-08-19T00:45:53;2.95;;;0.95;;
49372;SDS011;44113;38.408;-122.974;2022-08-19T00:48:22;4.93;;;1.35;;
49372;SDS011;44113;38.408;-122.974;2022-08-19T00:50:48;1.92;;;0.63;;
49372;SDS011;44113;38.408;-122.974;2022-08-19T00:53:19;2.15;;;1.00;;
49372;SDS011;44113;38.408;-122.974;2022-08-19T00:55:49;2.70;;;0.65;;
49372;SDS011;44113;38.408;-122.974;2022-08-19T00:58:19;1.48;;;0.88;;
49372;SDS011;44113;38.408;-122.974;2022-08-19T01:00:48;2.28;;;0.75;;
49372;SDS011;44113;38.408;-122.974;2022-08-19T01:03:18;4.53;;;1.10;;
49372;SDS011;44113;38.408;-122.974;2022-08-19T01:05:46;2.35;;;1.38;;
49372;SDS011;44113;38.408;-122.974;2022-08-19T01:08:16;2.67;;;1.20;;
49372;SDS011;44113;38.408;-122.974;2022-08-19T01:10:45;2.67;;;1.13;;
49372;SDS011;44113;38.408;-122.974;2022-08-19T01:13:15;5.35;;;1.60;;
49372;SDS011;44113;38.408;-122.974;2022-08-19T01:15:55;6.45;;;1.65;;
49372;SDS011;44113;38.408;-122.974;2022-08-19T01:18:24;3.88;;;1.25;;
49372;SDS011;44113;38.408;-122.974;2022-08-19T01:20:58;9.27;;;2.65;;
49372;SDS011;44113;38.408;-122.974;2022-08-19T01:23:27;2.80;;;1.40;;
49372;SDS011;44113;38.408;-122.974;2022-08-19T01:26:12;6.75;;;1.40;;
49372;SDS011;44113;38.408;-122.974;2022-08-19T01:28:41;4.50;;;1.20;;
49372;SDS011;44113;38.408;-122.974;2022-08-19T01:31:12;1.38;;;0.77;;
49372;SDS011;44113;38.408;-122.974;2022-08-19T01:33:44;2.95;;;0.70;;
49372;SDS011;44113;38.408;-122.974;2022-08-19T01:36:20;2.05;;;0.73;;
49372;SDS011;44113;38.408;-122.974;2022-08-19T01:38:53;5.13;;;1.17;;
49372;SDS011;44113;38.408;-122.974;2022-08-19T01:41:21;3.40;;;1.92;;
49372;SDS011;44113;38.408;-122.974;2022-08-19T01:43:49;4.22;;;1.60;;
49372;SDS011;44113;38.408;-122.974;2022-08-19T01:46:17;2.20;;;0.90;;
49372;SDS011;44113;38.408;-122.974;2022-08-19T01:48:44;7.40;;;1.52;;
49372;SDS011;44113;38.408;-122.974;2022-08-19T01:51:12;12.18;;;2.78;;
49372;SDS011;44113;38.408;-122.974;2022-08-19T01:53:38;15.60;;;3.42;;
49372;SDS011;44113;38.408;-122.974;2022-08-19T01:56:06;14.68;;;2.20;;
49372;SDS011;44113;38.408;-122.974;2022-08-19T01:58:38;3.78;;;1.75;;
49372;SDS011;44113;38.408;-122.974;2022-08-19T02:01:14;8.13;;;2.22;;
49372;SDS011;44113;38.408;-122.974;2022-08-19T02:03:42;6.13;;;2.22;;
49372;SDS011;44113;38.408;-122.974;2022-08-19T02:06:08;5.10;;;2.22;;
49372;SDS011;44113;38.408;-122.974;2022-08-19T02:08:37;6.18;;;1.60;;
49372;SDS011;44113;38.408;-122.974;2022-08-19T02:11:05;4.72;;;1.30;;
49372;SDS011;44113;38.408;-122.974;2022-08-19T02:13:32;7.18;;;2.15;;
49372;SDS011;44113;38.408;-122.974;2022-08-19T02:16:00;3.20;;;2.25;;
49372;SDS011;44113;38.408;-122.974;2022-08-19T02:18:27;10.63;;;4.35;;
49372;SDS011;44113;38.408;-122.974;2022-08-19T02:20:53;15.50;;;6.13;;
49372;SDS011;44113;38.408;-122.974;2022-08-19T02:23:20;9.32;;;3.75;;
49372;SDS011;44113;38.408;-122.974;2022-08-19T02:25:47;3.67;;;2.15;;
49372;SDS011;44113;38.408;-122.974;2022-08-19T02:28:14;5.53;;;1.92;;
49372;SDS011;44113;38.408;-122.974;2022-08-19T02:30:42;3.75;;;2.00;;
49372;SDS011;44113;38.408;-122.974;2022-08-19T02:33:09;7.78;;;3.15;;
49372;SDS011;44113;38.408;-122.974;2022-08-19T02:35:36;5.78;;;2.40;;
49372;SDS011;44113;38.408;-122.974;2022-08-19T02:38:02;4.13;;;2.75;;
49372;SDS011;44113;38.408;-122.974;2022-08-19T02:40:49;3.25;;;1.65;;
49372;SDS011;44113;38.408;-122.974;2022-08-19T02:43:17;3.38;;;1.50;;
49372;SDS011;44113;38.408;-122.974;2022-08-19T02:45:47;5.63;;;1.50;;
49372;SDS011;44113;38.408;-122.974;2022-08-19T02:48:16;7.30;;;2.83;;
49372;SDS011;44113;38.408;-122.974;2022-08-19T02:50:44;9.23;;;3.38;;
49372;SDS011;44113;38.408;-122.974;2022-08-19T02:53:12;7.15;;;2.78;;
49372;SDS011;44113;38.408;-122.974;2022-08-19T02:55:43;3.50;;;2.42;;
49372;SDS011;44113;38.408;-122.974;2022-08-19T02:58:12;7.72;;;3.20;;
49372;SDS011;44113;38.408;-122.974;2022-08-19T03:00:41;6.18;;;2.40;;
49372;SDS011;44113;38.408;-122.974;2022-08-19T03:03:14;4.97;;;2.97;;
49372;SDS011;44113;38.408;-122.974;2022-08-19T03:05:42;6.53;;;3.35;;
49372;SDS011;44113;38.408;-122.974;2022-08-19T03:08:09;5.68;;;2.30;;
49372;SDS011;44113;38.408;-122.974;2022-08-19T03:10:47;5.40;;;2.92;;
49372;SDS011;44113;38.408;-122.974;2022-08-19T03:13:15;18.10;;;4.05;;
49372;SDS011;44113;38.408;-122.974;2022-08-19T03:15:43;4.13;;;2.42;;
49372;SDS011;44113;38.408;-122.974;2022-08-19T03:18:12;4.20;;;3.20;;
49372;SDS011;44113;38.408;-122.974;2022-08-19T03:20:41;4.45;;;2.90;;
49372;SDS011;44113;38.408;-122.974;2022-08-19T03:23:10;5.80;;;2.75;;
49372;SDS011;44113;38.408;-122.974;2022-08-19T03:25:41;7.20;;;3.78;;
49372;SDS011;44113;38.408;-122.974;2022-08-19T03:28:11;6.78;;;2.90;;
49372;SDS011;44113;38.408;-122.974;2022-08-19T03:30:39;4.82;;;3.38;;
49372;SDS011;44113;38.408;-122.974;2022-08-19T03:33:09;11.35;;;4.07;;
49372;SDS011;44113;38.408;-122.974;2022-08-19T03:35:39;13.45;;;3.97;;
49372;SDS011;44113;38.408;-122.974;2022-08-19T03:38:06;5.55;;;1.90;;
49372;SDS011;44113;38.408;-122.974;2022-08-19T03:40:36;3.25;;;2.50;;
49372;SDS011;44113;38.408;-122.974;2022-08-19T03:43:02;4.72;;;2.78;;
49372;SDS011;44113;38.408;-122.974;2022-08-19T03:45:31;8.90;;;3.58;;
49372;SDS011;44113;38.408;-122.974;2022-08-19T03:47:58;5.75;;;3.17;;
49372;SDS011;44113;38.408;-122.974;2022-08-19T03:50:25;4.78;;;2.30;;
49372;SDS011;44113;38.408;-122.974;2022-08-19T03:52:52;2.70;;;1.90;;
49372;SDS011;44113;38.408;-122.974;2022-08-19T03:55:19;3.75;;;1.40;;
49372;SDS011;44113;38.408;-122.974;2022-08-19T03:57:46;5.75;;;1.48;;
49372;SDS011;44113;38.408;-122.974;2022-08-19T04:00:13;7.63;;;2.55;;
49372;SDS011;44113;38.408;-122.974;2022-08-19T04:02:42;7.85;;;2.88;;
49372;SDS011;44113;38.408;-122.974;2022-08-19T04:05:08;6.50;;;3.08;;
49372;SDS011;44113;38.408;-122.974;2022-08-19T04:07:35;3.17;;;0.82;;
49372;SDS011;44113;38.408;-122.974;2022-08-19T04:10:02;2.60;;;0.88;;
49372;SDS011;44113;38.408;-122.974;2022-08-19T04:12:29;2.30;;;1.80;;
49372;SDS011;44113;38.408;-122.974;2022-08-19T04:14:55;3.03;;;1.52;;
49372;SDS011;44113;38.408;-122.974;2022-08-19T04:17:22;5.20;;;1.38;;
49372;SDS011;44113;38.408;-122.974;2022-08-19T04:19:49;2.70;;;1.13;;
49372;SDS011;44113;38.408;-122.974;2022-08-19T04:22:15;5.28;;;1.80;;
49372;SDS011;44113;38.408;-122.974;2022-08-19T04:24:41;6.35;;;2.25;;
49372;SDS011;44113;38.408;-122.974;2022-08-19T04:27:08;5.25;;;2.05;;
49372;SDS011;44113;38.408;-122.974;2022-08-19T04:29:34;3.95;;;2.25;;
49372;SDS011;44113;38.408;-122.974;2022-08-19T04:32:03;3.13;;;0.82;;
49372;SDS011;44113;38.408;-122.974;2022-08-19T04:34:30;4.57;;;0.95;;
49372;SDS011;44113;38.408;-122.974;2022-08-19T04:36:57;3.22;;;1.10;;
49372;SDS011;44113;38.408;-122.974;2022-08-19T04:39:25;1.98;;;0.90;;
49372;SDS011;44113;38.408;-122.974;2022-08-19T04:42:11;3.53;;;0.70;;
49372;SDS011;44113;38.408;-122.974;2022-08-19T04:44:57;3.67;;;1.17;;
49372;SDS011;44113;38.408;-122.974;2022-08-19T04:47:25;2.80;;;1.25;;
49372;SDS011;44113;38.408;-122.974;2022-08-19T04:49:51;2.85;;;0.82;;
49372;SDS011;44113;38.408;-122.974;2022-08-19T04:52:18;1.85;;;0.82;;
49372;SDS011;44113;38.408;-122.974;2022-08-19T04:54:44;1.90;;;0.70;;
49372;SDS011;44113;38.408;-122.974;2022-08-19T04:57:11;3.72;;;1.17;;
49372;SDS011;44113;38.408;-122.974;2022-08-19T04:59:37;3.63;;;0.70;;
49372;SDS011;44113;38.408;-122.974;2022-08-19T05:02:04;1.35;;;0.60;;
49372;SDS011;44113;38.408;-122.974;2022-08-19T05:04:33;1.95;;;0.77;;
49372;SDS011;44113;38.408;-122.974;2022-08-19T05:07:00;2.33;;;0.68;;
49372;SDS011;44113;38.408;-122.974;2022-08-19T05:09:27;2.58;;;0.65;;
49372;SDS011;44113;38.408;-122.974;2022-08-19T05:11:55;1.52;;;0.60;;
49372;SDS011;44113;38.408;-122.974;2022-08-19T05:14:22;2.70;;;1.02;;
49372;SDS011;44113;38.408;-122.974;2022-08-19T05:16:49;2.38;;;0.82;;
49372;SDS011;44113;38.408;-122.974;2022-08-19T05:19:16;3.03;;;0.60;;
49372;SDS011;44113;38.408;-122.974;2022-08-19T05:22:01;1.40;;;0.43;;
49372;SDS011;44113;38.408;-122.974;2022-08-19T05:24:46;2.72;;;1.23;;
49372;SDS011;44113;38.408;-122.974;2022-08-19T05:27:12;1.50;;;0.52;;
49372;SDS011;44113;38.408;-122.974;2022-08-19T05:29:39;3.35;;;0.80;;
49372;SDS011;44113;38.408;-122.974;2022-08-19T05:32:06;1.55;;;0.47;;
49372;SDS011;44113;38.408;-122.974;2022-08-19T05:34:33;1.27;;;0.50;;
49372;SDS011;44113;38.408;-122.974;2022-08-19T05:37:01;1.38;;;0.63;;
49372;SDS011;44113;38.408;-122.974;2022-08-19T05:39:30;1.95;;;0.60;;
49372;SDS011;44113;38.408;-122.974;2022-08-19T05:42:00;2.08;;;0.50;;
49372;SDS011;44113;38.408;-122.974;2022-08-19T05:44:30;1.65;;;0.50;;
49372;SDS011;44113;38.408;-122.974;2022-08-19T05:46:59;1.52;;;0.50;;
49372;SDS011;44113;38.408;-122.974;2022-08-19T05:49:27;2.92;;;0.80;;
49372;SDS011;44113;38.408;-122.974;2022-08-19T05:51:54;1.00;;;0.45;;
49372;SDS011;44113;38.408;-122.974;2022-08-19T05:54:21;4.38;;;0.93;;
49372;SDS011;44113;38.408;-122.974;2022-08-19T05:56:49;1.10;;;0.47;;
49372;SDS011;44113;38.408;-122.974;2022-08-19T05:59:17;1.67;;;0.50;;
49372;SDS011;44113;38.408;-122.974;2022-08-19T06:01:45;1.95;;;0.70;;
49372;SDS011;44113;38.408;-122.974;2022-08-19T06:04:16;2.22;;;0.40;;
49372;SDS011;44113;38.408;-122.974;2022-08-19T06:06:48;1.30;;;0.50;;
49372;SDS011;44113;38.408;-122.974;2022-08-19T06:09:17;1.70;;;0.52;;
49372;SDS011;44113;38.408;-122.974;2022-08-19T06:11:45;1.77;;;0.40;;
49372;SDS011;44113;38.408;-122.974;2022-08-19T06:14:21;1.67;;;0.75;;
49372;SDS011;44113;38.408;-122.974;2022-08-19T06:16:50;2.08;;;0.70;;
49372;SDS011;44113;38.408;-122.974;2022-08-19T06:19:18;4.93;;;0.73;;
49372;SDS011;44113;38.408;-122.974;2022-08-19T06:21:47;4.38;;;0.80;;
49372;SDS011;44113;38.408;-122.974;2022-08-19T06:24:17;1.90;;;0.60;;
49372;SDS011;44113;38.408;-122.974;2022-08-19T06:26:51;3.42;;;1.08;;
49372;SDS011;44113;38.408;-122.974;2022-08-19T06:29:20;4.60;;;0.63;;
49372;SDS011;44113;38.408;-122.974;2022-08-19T06:31:50;3.88;;;0.95;;
49372;SDS011;44113;38.408;-122.974;2022-08-19T06:34:19;1.50;;;0.60;;
49372;SDS011;44113;38.408;-122.974;2022-08-19T06:36:47;1.55;;;0.70;;
49372;SDS011;44113;38.408;-122.974;2022-08-19T06:39:26;2.45;;;0.95;;
49372;SDS011;44113;38.408;-122.974;2022-08-19T06:41:56;2.50;;;0.82;;
49372;SDS011;44113;38.408;-122.974;2022-08-19T06:44:25;3.65;;;0.80;;
49372;SDS011;44113;38.408;-122.974;2022-08-19T06:46:54;2.00;;;0.60;;
49372;SDS011;44113;38.408;-122.974;2022-08-19T06:49:21;4.35;;;0.77;;
49372;SDS011;44113;38.408;-122.974;2022-08-19T06:51:49;1.67;;;0.70;;
49372;SDS011;44113;38.408;-122.974;2022-08-19T06:54:16;7.28;;;0.80;;
49372;SDS011;44113;38.408;-122.974;2022-08-19T06:56:44;3.78;;;1.33;;
49372;SDS011;44113;38.408;-122.974;2022-08-19T06:59:12;5.18;;;1.15;;
49372;SDS011;44113;38.408;-122.974;2022-08-19T07:01:43;4.10;;;0.70;;
49372;SDS011;44113;38.408;-122.974;2022-08-19T07:04:12;1.85;;;0.60;;
49372;SDS011;44113;38.408;-122.974;2022-08-19T07:06:42;1.30;;;0.93;;
49372;SDS011;44113;38.408;-122.974;2022-08-19T07:09:11;1.80;;;0.60;;
49372;SDS011;44113;38.408;-122.974;2022-08-19T07:11:43;10.25;;;0.93;;
49372;SDS011;44113;38.408;-122.974;2022-08-19T07:14:12;6.27;;;0.70;;
49372;SDS011;44113;38.408;-122.974;2022-08-19T07:16:41;1.83;;;0.80;;
49372;SDS011;44113;38.408;-122.974;2022-08-19T07:19:11;5.68;;;0.65;;
49372;SDS011;44113;38.408;-122.974;2022-08-19T07:21:38;5.57;;;0.50;;
49372;SDS011;44113;38.408;-122.974;2022-08-19T07:24:05;3.10;;;0.70;;
49372;SDS011;44113;38.408;-122.974;2022-08-19T07:26:33;7.43;;;0.80;;
49372;SDS011;44113;38.408;-122.974;2022-08-19T07:29:04;4.03;;;0.50;;
49372;SDS011;44113;38.408;-122.974;2022-08-19T07:31:31;2.28;;;0.73;;
49372;SDS011;44113;38.408;-122.974;2022-08-19T07:34:02;3.17;;;1.00;;
49372;SDS011;44113;38.408;-122.974;2022-08-19T07:36:32;2.38;;;0.47;;
49372;SDS011;44113;38.408;-122.974;2022-08-19T07:39:03;2.42;;;0.77;;
49372;SDS011;44113;38.408;-122.974;2022-08-19T07:41:33;2.83;;;0.73;;
49372;SDS011;44113;38.408;-122.974;2022-08-19T07:44:02;4.03;;;0.80;;
49372;SDS011;44113;38.408;-122.974;2022-08-19T07:46:36;2.72;;;0.50;;
49372;SDS011;44113;38.408;-122.974;2022-08-19T07:49:05;3.45;;;0.60;;
49372;SDS011;44113;38.408;-122.974;2022-08-19T07:51:33;4.63;;;0.82;;
49372;SDS011;44113;38.408;-122.974;2022-08-19T07:54:00;3.75;;;0.60;;
49372;SDS011;44113;38.408;-122.974;2022-08-19T07:56:27;1.83;;;0.68;;
49372;SDS011;44113;38.408;-122.974;2022-08-19T07:58:54;4.20;;;1.27;;
49372;SDS011;44113;38.408;-122.974;2022-08-19T08:01:23;1.98;;;0.55;;
49372;SDS011;44113;38.408;-122.974;2022-08-19T08:03:53;3.72;;;0.60;;
49372;SDS011;44113;38.408;-122.974;2022-08-19T08:06:41;7.30;;;0.65;;
49372;SDS011;44113;38.408;-122.974;2022-08-19T08:09:28;2.50;;;0.60;;
49372;SDS011;44113;38.408;-122.974;2022-08-19T08:12:02;3.80;;;0.65;;
49372;SDS011;44113;38.408;-122.974;2022-08-19T08:14:39;3.10;;;0.73;;
49372;SDS011;44113;38.408;-122.974;2022-08-19T08:17:18;7.30;;;1.55;;
49372;SDS011;44113;38.408;-122.974;2022-08-19T08:19:46;2.85;;;0.80;;
49372;SDS011;44113;38.408;-122.974;2022-08-19T08:22:16;5.05;;;0.70;;
49372;SDS011;44113;38.408;-122.974;2022-08-19T08:25:08;4.93;;;1.33;;
49372;SDS011;44113;38.408;-122.974;2022-08-19T08:27:44;2.00;;;0.85;;
49372;SDS011;44113;38.408;-122.974;2022-08-19T08:30:13;3.55;;;0.95;;
49372;SDS011;44113;38.408;-122.974;2022-08-19T08:32:44;4.15;;;1.00;;
49372;SDS011;44113;38.408;-122.974;2022-08-19T08:35:12;3.25;;;0.50;;
49372;SDS011;44113;38.408;-122.974;2022-08-19T08:37:42;1.48;;;0.43;;
49372;SDS011;44113;38.408;-122.974;2022-08-19T08:45:36;0.98;;;0.40;;
49372;SDS011;44113;38.408;-122.974;2022-08-19T08:48:34;1.75;;;0.93;;
49372;SDS011;44113;38.408;-122.974;2022-08-19T08:50:57;1.20;;;0.73;;
49372;SDS011;44113;38.408;-122.974;2022-08-19T08:53:27;3.42;;;0.73;;
49372;SDS011;44113;38.408;-122.974;2022-08-19T08:55:54;1.42;;;0.70;;
49372;SDS011;44113;38.408;-122.974;2022-08-19T08:58:29;7.18;;;0.63;;
49372;SDS011;44113;38.408;-122.974;2022-08-19T09:01:09;2.28;;;0.60;;
49372;SDS011;44113;38.408;-122.974;2022-08-19T09:03:37;1.17;;;0.50;;
49372;SDS011;44113;38.408;-122.974;2022-08-19T09:14:19;2.35;;;0.90;;
49372;SDS011;44113;38.408;-122.974;2022-08-19T09:17:03;1.55;;;0.55;;
49372;SDS011;44113;38.408;-122.974;2022-08-19T09:19:33;1.45;;;0.50;;
49372;SDS011;44113;38.408;-122.974;2022-08-19T09:22:01;1.10;;;0.50;;
49372;SDS011;44113;38.408;-122.974;2022-08-19T09:24:30;2.58;;;0.55;;
49372;SDS011;44113;38.408;-122.974;2022-08-19T09:26:57;2.65;;;0.60;;
49372;SDS011;44113;38.408;-122.974;2022-08-19T09:29:24;1.27;;;0.50;;
49372;SDS011;44113;38.408;-122.974;2022-08-19T09:31:51;4.47;;;0.68;;
49372;SDS011;44113;38.408;-122.974;2022-08-19T09:34:18;1.63;;;0.40;;
49372;SDS011;44113;38.408;-122.974;2022-08-19T09:36:46;3.78;;;0.55;;
49372;SDS011;44113;38.408;-122.974;2022-08-19T09:39:18;1.65;;;0.60;;
49372;SDS011;44113;38.408;-122.974;2022-08-19T09:41:45;1.33;;;0.70;;
49372;SDS011;44113;38.408;-122.974;2022-08-19T09:44:12;1.42;;;0.50;;
49372;SDS011;44113;38.408;-122.974;2022-08-19T09:46:39;4.57;;;0.70;;
49372;SDS011;44113;38.408;-122.974;2022-08-19T09:49:05;1.35;;;0.50;;
49372;SDS011;44113;38.408;-122.974;2022-08-19T09:51:32;1.75;;;0.50;;
49372;SDS011;44113;38.408;-122.974;2022-08-19T09:54:00;3.20;;;0.52;;
49372;SDS011;44113;38.408;-122.974;2022-08-19T09:56:28;5.30;;;0.50;;
49372;SDS011;44113;38.408;-122.974;2022-08-19T09:58:58;1.77;;;0.57;;
49372;SDS011;44113;38.408;-122.974;2022-08-19T10:01:27;1.40;;;0.50;;
49372;SDS011;44113;38.408;-122.974;2022-08-19T10:03:55;3.10;;;0.90;;
49372;SDS011;44113;38.408;-122.974;2022-08-19T10:06:24;4.82;;;1.25;;
49372;SDS011;44113;38.408;-122.974;2022-08-19T10:08:55;2.50;;;0.45;;
49372;SDS011;44113;38.408;-122.974;2022-08-19T10:11:22;1.17;;;0.50;;
49372;SDS011;44113;38.408;-122.974;2022-08-19T10:13:49;1.42;;;0.50;;
49372;SDS011;44113;38.408;-122.974;2022-08-19T10:16:17;2.10;;;1.25;;
49372;SDS011;44113;38.408;-122.974;2022-08-19T10:18:48;1.83;;;0.82;;
49372;SDS011;44113;38.408;-122.974;2022-08-19T10:23:45;2.33;;;0.55;;
49372;SDS011;44113;38.408;-122.974;2022-08-19T10:26:21;1.95;;;0.60;;
49372;SDS011;44113;38.408;-122.974;2022-08-19T10:28:54;2.67;;;0.60;;
49372;SDS011;44113;38.408;-122.974;2022-08-19T10:31:22;1.55;;;0.60;;
49372;SDS011;44113;38.408;-122.974;2022-08-19T10:33:51;1.13;;;0.52;;
49372;SDS011;44113;38.408;-122.974;2022-08-19T10:36:28;3.85;;;0.60;;
49372;SDS011;44113;38.408;-122.974;2022-08-19T10:39:01;2.00;;;0.77;;
49372;SDS011;44113;38.408;-122.974;2022-08-19T10:41:33;2.30;;;0.50;;
49372;SDS011;44113;38.408;-122.974;2022-08-19T10:44:03;1.38;;;0.63;;
49372;SDS011;44113;38.408;-122.974;2022-08-19T10:46:33;2.97;;;0.63;;
49372;SDS011;44113;38.408;-122.974;2022-08-19T10:49:02;2.83;;;0.52;;
49372;SDS011;44113;38.408;-122.974;2022-08-19T10:51:30;3.38;;;0.80;;
49372;SDS011;44113;38.408;-122.974;2022-08-19T10:54:16;2.20;;;0.80;;
49372;SDS011;44113;38.408;-122.974;2022-08-19T10:56:43;1.75;;;0.50;;
49372;SDS011;44113;38.408;-122.974;2022-08-19T10:59:26;1.48;;;0.60;;
49372;SDS011;44113;38.408;-122.974;2022-08-19T11:01:58;2.75;;;0.65;;
49372;SDS011;44113;38.408;-122.974;2022-08-19T11:04:26;4.47;;;1.50;;
49372;SDS011;44113;38.408;-122.974;2022-08-19T11:06:52;3.05;;;1.08;;
49372;SDS011;44113;38.408;-122.974;2022-08-19T11:09:21;2.25;;;1.00;;
49372;SDS011;44113;38.408;-122.974;2022-08-19T11:11:54;1.67;;;0.57;;
49372;SDS011;44113;38.408;-122.974;2022-08-19T11:14:22;2.30;;;0.98;;
49372;SDS011;44113;38.408;-122.974;2022-08-19T11:16:51;2.13;;;1.00;;
49372;SDS011;44113;38.408;-122.974;2022-08-19T11:19:21;1.30;;;0.50;;
49372;SDS011;44113;38.408;-122.974;2022-08-19T11:21:49;1.58;;;0.70;;
49372;SDS011;44113;38.408;-122.974;2022-08-19T11:24:18;1.98;;;0.70;;
49372;SDS011;44113;38.408;-122.974;2022-08-19T11:26:47;2.75;;;0.60;;
49372;SDS011;44113;38.408;-122.974;2022-08-19T11:29:16;1.27;;;0.50;;
49372;SDS011;44113;38.408;-122.974;2022-08-19T11:31:47;2.08;;;0.93;;
49372;SDS011;44113;38.408;-122.974;2022-08-19T11:34:17;2.08;;;1.17;;
49372;SDS011;44113;38.408;-122.974;2022-08-19T11:36:46;3.08;;;0.57;;
49372;SDS011;44113;38.408;-122.974;2022-08-19T11:39:14;1.50;;;0.60;;
49372;SDS011;44113;38.408;-122.974;2022-08-19T11:41:43;1.73;;;0.80;;
49372;SDS011;44113;38.408;-122.974;2022-08-19T11:44:09;1.45;;;0.50;;
49372;SDS011;44113;38.408;-122.974;2022-08-19T11:46:37;3.78;;;0.60;;
49372;SDS011;44113;38.408;-122.974;2022-08-19T11:49:05;1.63;;;0.52;;
49372;SDS011;44113;38.408;-122.974;2022-08-19T11:51:32;1.60;;;0.73;;
49372;SDS011;44113;38.408;-122.974;2022-08-19T11:53:59;1.80;;;0.60;;
49372;SDS011;44113;38.408;-122.974;2022-08-19T11:56:27;1.50;;;0.65;;
49372;SDS011;44113;38.408;-122.974;2022-08-19T11:58:54;2.85;;;0.75;;
49372;SDS011;44113;38.408;-122.974;2022-08-19T12:01:25;2.78;;;0.60;;
49372;SDS011;44113;38.408;-122.974;2022-08-19T12:03:52;2.47;;;0.60;;
49372;SDS011;44113;38.408;-122.974;2022-08-19T12:06:23;1.85;;;0.88;;
49372;SDS011;44113;38.408;-122.974;2022-08-19T12:08:54;2.08;;;1.15;;
49372;SDS011;44113;38.408;-122.974;2022-08-19T12:11:21;1.80;;;0.70;;
49372;SDS011;44113;38.408;-122.974;2022-08-19T12:13:48;1.90;;;0.65;;
49372;SDS011;44113;38.408;-122.974;2022-08-19T12:16:20;1.95;;;0.70;;
49372;SDS011;44113;38.408;-122.974;2022-08-19T12:18:50;2.47;;;0.80;;
49372;SDS011;44113;38.408;-122.974;2022-08-19T12:21:19;1.75;;;0.70;;
49372;SDS011;44113;38.408;-122.974;2022-08-19T12:23:53;1.25;;;0.57;;
49372;SDS011;44113;38.408;-122.974;2022-08-19T12:26:21;1.42;;;0.50;;
49372;SDS011;44113;38.408;-122.974;2022-08-19T12:28:49;1.90;;;0.50;;
49372;SDS011;44113;38.408;-122.974;2022-08-19T12:31:16;1.55;;;0.82;;
49372;SDS011;44113;38.408;-122.974;2022-08-19T12:33:45;3.35;;;0.75;;
49372;SDS011;44113;38.408;-122.974;2022-08-19T12:36:13;2.97;;;1.52;;
49372;SDS011;44113;38.408;-122.974;2022-08-19T12:38:41;1.05;;;0.60;;
49372;SDS011;44113;38.408;-122.974;2022-08-19T12:41:10;1.50;;;1.02;;
49372;SDS011;44113;38.408;-122.974;2022-08-19T12:43:40;1.20;;;0.40;;
49372;SDS011;44113;38.408;-122.974;2022-08-19T12:46:07;2.47;;;0.80;;
49372;SDS011;44113;38.408;-122.974;2022-08-19T12:48:34;1.30;;;0.50;;
49372;SDS011;44113;38.408;-122.974;2022-08-19T12:51:06;2.28;;;0.73;;
49372;SDS011;44113;38.408;-122.974;2022-08-19T12:53:34;2.38;;;0.60;;
49372;SDS011;44113;38.408;-122.974;2022-08-19T12:56:01;2.42;;;0.60;;
49372;SDS011;44113;38.408;-122.974;2022-08-19T12:58:28;1.92;;;0.82;;
49372;SDS011;44113;38.408;-122.974;2022-08-19T13:00:55;1.48;;;0.60;;
49372;SDS011;44113;38.408;-122.974;2022-08-19T13:03:22;1.73;;;0.70;;
49372;SDS011;44113;38.408;-122.974;2022-08-19T13:05:54;2.17;;;0.80;;
49372;SDS011;44113;38.408;-122.974;2022-08-19T13:08:22;5.10;;;0.93;;
49372;SDS011;44113;38.408;-122.974;2022-08-19T13:10:48;2.20;;;0.93;;
49372;SDS011;44113;38.408;-122.974;2022-08-19T13:13:15;2.55;;;0.90;;
49372;SDS011;44113;38.408;-122.974;2022-08-19T13:15:43;2.00;;;0.90;;
49372;SDS011;44113;38.408;-122.974;2022-08-19T13:18:10;2.22;;;1.23;;
49372;SDS011;44113;38.408;-122.974;2022-08-19T13:20:37;2.05;;;0.75;;
49372;SDS011;44113;38.408;-122.974;2022-08-19T13:23:08;1.55;;;0.77;;
49372;SDS011;44113;38.408;-122.974;2022-08-19T13:25:36;2.30;;;1.23;;
49372;SDS011;44113;38.408;-122.974;2022-08-19T13:28:03;1.58;;;0.70;;
49372;SDS011;44113;38.408;-122.974;2022-08-19T13:30:31;1.60;;;0.50;;
49372;SDS011;44113;38.408;-122.974;2022-08-19T13:33:16;2.88;;;0.75;;
49372;SDS011;44113;38.408;-122.974;2022-08-19T13:38:16;2.03;;;1.10;;
49372;SDS011;44113;38.408;-122.974;2022-08-19T13:40:45;1.52;;;0.65;;
49372;SDS011;44113;38.408;-122.974;2022-08-19T13:43:13;2.20;;;0.90;;
49372;SDS011;44113;38.408;-122.974;2022-08-19T13:45:40;8.60;;;1.40;;
49372;SDS011;44113;38.408;-122.974;2022-08-19T13:48:07;2.00;;;0.95;;
49372;SDS011;44113;38.408;-122.974;2022-08-19T13:50:44;1.63;;;0.85;;
49372;SDS011;44113;38.408;-122.974;2022-08-19T13:53:12;1.50;;;0.75;;
49372;SDS011;44113;38.408;-122.974;2022-08-19T13:55:39;2.03;;;0.80;;
49372;SDS011;44113;38.408;-122.974;2022-08-19T13:58:08;4.70;;;0.80;;
49372;SDS011;44113;38.408;-122.974;2022-08-19T14:00:36;1.48;;;0.70;;
49372;SDS011;44113;38.408;-122.974;2022-08-19T14:03:09;2.13;;;1.08;;
49372;SDS011;44113;38.408;-122.974;2022-08-19T14:05:36;1.13;;;0.50;;
49372;SDS011;44113;38.408;-122.974;2022-08-19T14:08:04;2.28;;;0.60;;
49372;SDS011;44113;38.408;-122.974;2022-08-19T14:10:30;3.25;;;0.98;;
49372;SDS011;44113;38.408;-122.974;2022-08-19T14:12:59;2.67;;;0.80;;
49372;SDS011;44113;38.408;-122.974;2022-08-19T14:15:27;2.17;;;0.82;;
49372;SDS011;44113;38.408;-122.974;2022-08-19T14:17:55;4.65;;;1.17;;
49372;SDS011;44113;38.408;-122.974;2022-08-19T14:20:22;3.97;;;0.75;;
49372;SDS011;44113;38.408;-122.974;2022-08-19T14:22:49;1.80;;;0.70;;
49372;SDS011;44113;38.408;-122.974;2022-08-19T14:25:17;3.10;;;1.02;;
49372;SDS011;44113;38.408;-122.974;2022-08-19T14:27:47;1.35;;;0.77;;
49372;SDS011;44113;38.408;-122.974;2022-08-19T14:30:16;2.42;;;1.05;;
49372;SDS011;44113;38.408;-122.974;2022-08-19T14:32:45;2.00;;;0.80;;
49372;SDS011;44113;38.408;-122.974;2022-08-19T14:35:13;2.45;;;1.05;;
49372;SDS011;44113;38.408;-122.974;2022-08-19T14:37:41;4.20;;;1.10;;
49372;SDS011;44113;38.408;-122.974;2022-08-19T14:40:09;1.63;;;0.93;;
49372;SDS011;44113;38.408;-122.974;2022-08-19T14:42:37;2.67;;;1.02;;
49372;SDS011;44113;38.408;-122.974;2022-08-19T14:45:04;2.58;;;0.93;;
49372;SDS011;44113;38.408;-122.974;2022-08-19T14:47:31;2.08;;;1.00;;
49372;SDS011;44113;38.408;-122.974;2022-08-19T14:49:57;3.03;;;1.60;;
49372;SDS011;44113;38.408;-122.974;2022-08-19T14:52:24;1.58;;;0.57;;